createdAt,value
2023-05-06T00:04:50.388Z,17.49
2023-05-06T00:09:52.714Z,17.62
2023-05-06T00:14:54.906Z,17.30
2023-05-06T00:19:58.859Z,17.22
2023-05-06T00:25:01.087Z,17.14
2023-05-06T00:30:04.337Z,17.25
2023-05-06T00:35:07.432Z,16.72
2023-05-06T00:40:10.833Z,16.58
2023-05-06T00:45:13.311Z,16.71
2023-05-06T00:50:15.734Z,17.05
2023-05-06T00:55:18.235Z,17.30
2023-05-06T01:00:21.605Z,16.66
2023-05-06T01:05:29.985Z,15.96
2023-05-06T01:10:52.584Z,16.27
2023-05-06T01:15:59.695Z,16.25
2023-05-06T01:21:05.339Z,16.62
2023-05-06T01:26:07.501Z,16.68
2023-05-06T01:31:15.287Z,16.32
2023-05-06T01:37:10.814Z,16.30
2023-05-06T01:42:15.568Z,15.82
2023-05-06T01:47:19.690Z,16.28
2023-05-06T01:52:22.541Z,16.95
2023-05-06T01:57:25.706Z,16.94
2023-05-06T02:02:27.936Z,16.97
2023-05-06T02:07:30.394Z,16.75
2023-05-06T02:12:32.888Z,16.39
2023-05-06T02:17:37.517Z,16.48
2023-05-06T02:22:40.003Z,16.64
2023-05-06T02:27:42.516Z,16.47
2023-05-06T02:32:44.953Z,16.23
2023-05-06T02:37:47.085Z,15.75
2023-05-06T02:42:50.545Z,15.42
2023-05-06T02:47:52.758Z,15.29
2023-05-06T02:52:54.913Z,15.12
2023-05-06T02:57:57.076Z,15.16
2023-05-06T03:02:59.268Z,15.18
2023-05-06T03:08:02.587Z,15.31
2023-05-06T03:13:06.268Z,15.31
2023-05-06T03:18:08.565Z,15.25
2023-05-06T03:23:12.266Z,15.18
2023-05-06T03:28:15.048Z,14.92
2023-05-06T03:33:19.984Z,14.92
2023-05-06T03:38:22.617Z,14.98
2023-05-06T03:43:31.871Z,15.10
2023-05-06T03:48:37.485Z,15.40
2023-05-06T03:53:44.049Z,15.76
2023-05-06T03:58:46.316Z,15.53
2023-05-06T04:03:49.516Z,15.01
2023-05-06T04:08:51.815Z,14.81
2023-05-06T04:13:55.466Z,14.91
2023-05-06T04:18:58.860Z,15.40
2023-05-06T04:24:01.458Z,15.51
2023-05-06T04:29:09.965Z,16.05
2023-05-06T04:34:20.404Z,16.42
2023-05-06T04:39:23.017Z,15.97
2023-05-06T04:44:27.311Z,16.35
2023-05-06T04:49:30.125Z,16.88
2023-05-06T04:54:32.502Z,16.66
2023-05-06T04:59:34.901Z,16.09
2023-05-06T05:04:38.249Z,16.26
2023-05-06T05:09:40.941Z,16.33
2023-05-06T05:14:43.594Z,16.42
2023-05-06T05:19:47.707Z,16.36
2023-05-06T05:24:51.785Z,15.71
2023-05-06T05:29:54.283Z,15.69
2023-05-06T05:34:57.414Z,16.52
2023-05-06T05:40:00.427Z,16.87
2023-05-06T05:45:02.815Z,17.15
2023-05-06T05:50:05.746Z,17.30
2023-05-06T05:55:09.044Z,17.53
2023-05-06T06:00:14.256Z,18.04
2023-05-06T06:05:19.161Z,18.25
2023-05-06T06:10:21.376Z,18.33
2023-05-06T06:15:24.615Z,18.30
2023-05-06T06:20:28.856Z,18.40
2023-05-06T06:25:31.189Z,18.36
2023-05-06T06:30:33.604Z,18.65
2023-05-06T06:35:36.121Z,19.01
2023-05-06T06:40:41.045Z,19.56
2023-05-06T06:45:48.314Z,20.00
2023-05-06T06:50:50.744Z,19.97
2023-05-06T06:55:53.160Z,20.05
2023-05-06T07:00:55.326Z,20.28
2023-05-06T07:05:57.431Z,20.18
2023-05-06T07:11:01.307Z,20.01
2023-05-06T07:16:03.914Z,20.09
2023-05-06T07:21:06.202Z,20.22
2023-05-06T07:26:08.295Z,20.25
2023-05-06T07:31:10.805Z,20.91
2023-05-06T07:36:13.166Z,21.68
2023-05-06T07:41:15.482Z,22.45
2023-05-06T07:46:17.874Z,23.00
2023-05-06T07:51:20.117Z,23.27
2023-05-06T07:56:22.459Z,23.22
2023-05-06T08:01:25.614Z,22.47
2023-05-06T08:06:27.819Z,21.89
2023-05-06T08:11:29.952Z,21.11
2023-05-06T08:16:32.310Z,22.54
2023-05-06T08:21:34.470Z,23.77
2023-05-06T08:26:38.537Z,24.09
2023-05-06T08:31:40.918Z,23.51
2023-05-06T08:36:43.300Z,22.46
2023-05-06T08:41:52.477Z,23.35
2023-05-06T08:46:54.952Z,25.03
2023-05-06T08:51:58.292Z,25.17
2023-05-06T08:57:06.244Z,23.65
2023-05-06T09:02:08.784Z,22.78
2023-05-06T09:07:11.280Z,22.38
2023-05-06T09:12:15.162Z,22.10
2023-05-06T09:17:28.698Z,21.52
2023-05-06T09:22:31.381Z,20.63
2023-05-06T09:27:36.977Z,21.39
2023-05-06T09:32:40.702Z,22.19
2023-05-06T09:37:43.191Z,25.00
2023-05-06T09:42:45.916Z,26.48
2023-05-06T09:47:49.893Z,25.76
2023-05-06T09:52:52.335Z,25.52
2023-05-06T09:57:56.440Z,26.81
2023-05-06T10:03:00.928Z,27.16
2023-05-06T10:08:04.633Z,28.49
2023-05-06T10:13:07.095Z,29.16
2023-05-06T10:18:09.893Z,29.22
2023-05-06T10:23:24.098Z,28.88
2023-05-06T10:28:30.914Z,28.88
2023-05-06T10:33:34.739Z,29.14
2023-05-06T10:38:44.560Z,30.45
2023-05-06T10:43:47.874Z,29.37
2023-05-06T10:49:04.913Z,28.88
2023-05-06T10:54:07.910Z,29.80
2023-05-06T10:59:12.545Z,29.52
2023-05-06T11:04:18.781Z,28.08
2023-05-06T11:09:27.862Z,28.17
2023-05-06T11:14:35.920Z,28.79
2023-05-06T11:19:40.240Z,30.53
2023-05-06T11:24:44.328Z,32.31
2023-05-06T11:29:46.895Z,31.82
2023-05-06T11:34:49.264Z,29.96
2023-05-06T11:39:51.394Z,27.61
2023-05-06T11:44:55.937Z,26.49
2023-05-06T11:49:59.190Z,25.36
2023-05-06T11:55:01.328Z,27.14
2023-05-06T12:00:05.231Z,27.42
2023-05-06T12:05:14.679Z,27.55
2023-05-06T12:10:17.715Z,26.80
2023-05-06T12:15:20.112Z,25.70
2023-05-06T12:20:23.405Z,25.15
2023-05-06T12:25:25.747Z,25.50
2023-05-06T12:30:34.669Z,25.43
2023-05-06T12:35:37.617Z,24.57
2023-05-06T12:40:44.672Z,24.27
2023-05-06T12:46:09.469Z,24.10
2023-05-06T12:51:19.589Z,24.09
2023-05-06T12:56:22.687Z,24.35
2023-05-06T13:01:24.906Z,26.80
2023-05-06T13:06:27.009Z,26.49
2023-05-06T13:11:29.181Z,26.14
2023-05-06T13:16:32.575Z,26.92
2023-05-06T13:21:36.230Z,26.90
2023-05-06T13:26:38.952Z,26.78
2023-05-06T13:31:41.251Z,26.62
2023-05-06T13:36:44.199Z,26.06
2023-05-06T13:41:50.359Z,27.11
2023-05-06T13:46:52.802Z,27.18
2023-05-06T13:51:54.996Z,26.30
2023-05-06T13:56:58.487Z,26.44
2023-05-06T14:02:01.305Z,27.21
2023-05-06T14:07:03.592Z,28.34
2023-05-06T14:12:06.169Z,28.52
2023-05-06T14:17:08.315Z,27.68
2023-05-06T14:22:10.423Z,27.43
2023-05-06T14:27:12.652Z,27.44
2023-05-06T14:32:15.527Z,27.15
2023-05-06T14:37:18.014Z,26.54
2023-05-06T14:42:20.158Z,26.79
2023-05-06T14:47:22.607Z,26.89
2023-05-06T14:52:24.977Z,26.57
2023-05-06T14:57:27.154Z,26.26
2023-05-06T15:02:29.382Z,26.12
2023-05-06T15:07:31.626Z,26.14
2023-05-06T15:12:36.512Z,25.77
2023-05-06T15:17:39.607Z,25.55
2023-05-06T15:22:41.860Z,25.41
2023-05-06T15:27:44.256Z,25.50
2023-05-06T15:32:49.179Z,25.06
2023-05-06T15:37:58.863Z,24.90
2023-05-06T15:43:01.186Z,24.56
2023-05-06T15:48:03.385Z,24.53
2023-05-06T15:53:05.611Z,24.32
2023-05-06T15:58:07.707Z,24.31
2023-05-06T16:03:12.024Z,23.91
2023-05-06T16:08:15.193Z,23.77
2023-05-06T16:13:17.842Z,23.67
2023-05-06T16:18:20.056Z,23.47
2023-05-06T16:23:22.246Z,23.61
2023-05-06T16:28:24.802Z,23.81
2023-05-06T16:33:27.024Z,23.68
2023-05-06T16:38:29.161Z,23.48
2023-05-06T16:43:31.558Z,23.38
2023-05-06T16:48:34.407Z,23.38
2023-05-06T16:53:36.763Z,23.36
2023-05-06T16:58:39.235Z,23.32
2023-05-06T17:03:43.026Z,23.33
2023-05-06T17:08:45.539Z,23.30
2023-05-06T17:13:47.899Z,23.23
2023-05-06T17:18:50.085Z,23.13
2023-05-06T17:23:54.616Z,22.99
2023-05-06T17:28:56.763Z,22.89
2023-05-06T17:33:58.965Z,22.89
2023-05-06T17:39:05.871Z,22.73
2023-05-06T17:44:08.266Z,22.76
2023-05-06T17:49:10.634Z,22.75
2023-05-06T17:54:13.629Z,22.80
2023-05-06T17:59:17.761Z,22.77
2023-05-06T18:04:19.861Z,22.70
2023-05-06T18:09:22.070Z,22.64
2023-05-06T18:14:24.311Z,22.59
2023-05-06T18:19:26.457Z,22.54
2023-05-06T18:24:28.554Z,22.46
2023-05-06T18:29:32.777Z,22.37
2023-05-06T18:34:35.138Z,22.33
2023-05-06T18:39:45.655Z,21.84
2023-05-06T18:44:50.427Z,21.94
2023-05-06T18:49:53.585Z,22.00
2023-05-06T18:54:55.734Z,22.09
2023-05-06T18:59:57.930Z,22.09
2023-05-06T19:05:00.164Z,21.86
2023-05-06T19:10:02.435Z,21.71
2023-05-06T19:15:05.171Z,21.82
2023-05-06T19:20:08.838Z,21.80
2023-05-06T19:25:11.639Z,21.79
2023-05-06T19:30:14.401Z,21.87
2023-05-06T19:35:17.806Z,21.55
2023-05-06T19:40:20.629Z,21.68
2023-05-06T19:45:22.776Z,21.81
2023-05-06T19:50:28.572Z,21.84
2023-05-06T19:55:31.473Z,21.66
2023-05-06T20:00:33.884Z,21.54
2023-05-06T20:05:36.314Z,21.20
2023-05-06T20:10:39.002Z,21.16
2023-05-06T20:15:41.706Z,21.20
2023-05-06T20:20:44.322Z,20.89
2023-05-06T20:25:46.606Z,20.47
2023-05-06T20:30:48.992Z,20.79
2023-05-06T20:35:52.447Z,20.65
2023-05-06T20:40:54.614Z,20.24
2023-05-06T20:45:56.824Z,20.40
2023-05-06T20:50:59.064Z,20.50
2023-05-06T20:56:01.592Z,20.80
2023-05-06T21:01:04.036Z,20.50
2023-05-06T21:06:06.360Z,20.44
2023-05-06T21:11:08.441Z,20.43
2023-05-06T21:16:10.575Z,20.28
2023-05-06T21:21:12.688Z,20.11
2023-05-06T21:26:16.016Z,19.95
2023-05-06T21:31:24.189Z,19.94
2023-05-06T21:36:27.300Z,19.86
2023-05-06T21:41:29.570Z,19.80
2023-05-06T21:46:33.043Z,19.74
2023-05-06T21:51:36.645Z,19.83
2023-05-06T21:56:38.867Z,19.48
2023-05-06T22:01:41.042Z,19.38
2023-05-06T22:06:43.223Z,19.10
2023-05-06T22:11:45.732Z,19.31
2023-05-06T22:16:48.247Z,19.02
2023-05-06T22:21:50.409Z,19.02
2023-05-06T22:26:52.563Z,19.61
2023-05-06T22:31:54.767Z,20.02
2023-05-06T22:36:59.162Z,20.04
2023-05-06T22:42:02.988Z,19.47
2023-05-06T22:47:05.171Z,18.84
2023-05-06T22:52:07.382Z,18.75
2023-05-06T22:57:09.780Z,18.83
2023-05-06T23:02:12.218Z,19.06
2023-05-06T23:07:14.847Z,19.23
2023-05-06T23:12:17.221Z,18.99
2023-05-06T23:17:19.435Z,18.74
2023-05-06T23:22:21.552Z,18.51
2023-05-06T23:27:23.845Z,18.43
2023-05-06T23:32:26.382Z,19.13
2023-05-06T23:37:28.592Z,19.48
2023-05-06T23:42:30.851Z,19.45
2023-05-06T23:47:33.218Z,18.30
2023-05-06T23:52:38.366Z,18.18
2023-05-06T23:57:40.563Z,18.72
